Time;durP1;ratioP1;P1;durP2;ratioP2;P2;SDS_P1;SDS_P2;PMS_P1;PMS_P2;Temp;Humidity;BMP_temperature;BMP_pressure;BME280_temperature;BME280_humidity;BME280_pressure;Samples;Min_cycle;Max_cycle;Signal;HPM_P1;HPM_P2
2023/06/04 00:00:06;;;;;;;2.67;2.10;;;;;;;11.92;70.14;102080.41;1046438;28;20295;-55
2023/06/04 00:00:39;;;;;;;2.92;1.10;;;;;;;11.88;69.79;102077.28;1049276;28;20303;-48
2023/06/04 00:01:11;;;;;;;2.03;1.35;;;;;;;11.87;69.82;102072.97;1048280;28;20834;-45
2023/06/04 00:01:47;;;;;;;8.48;1.27;;;;;;;11.84;70.05;102078.69;1047967;28;20294;-49
2023/06/04 00:02:19;;;;;;;1.45;1.35;;;;;;;11.84;70.27;102078.69;1045157;28;20291;-47
2023/06/04 00:02:51;;;;;;;6.97;1.50;;;;;;;11.86;70.22;102079.34;1048005;28;20305;-48
2023/06/04 00:03:23;;;;;;;1.92;1.10;;;;;;;11.86;70.26;102076.66;1048084;28;20784;-50
2023/06/04 00:03:55;;;;;;;1.83;1.45;;;;;;;11.82;69.99;102072.72;1044677;28;20777;-46
2023/06/04 00:04:27;;;;;;;1.95;1.45;;;;;;;11.84;69.96;102068.03;1041587;28;20292;-46
2023/06/04 00:04:58;;;;;;;6.22;1.67;;;;;;;11.83;70.08;102066.38;1043587;28;20330;-47
2023/06/04 00:05:30;;;;;;;8.07;1.83;;;;;;;11.81;70.38;102076.44;1044156;28;20401;-48
2023/06/04 00:06:02;;;;;;;1.45;1.30;;;;;;;11.82;70.36;102072.72;1044381;28;20472;-46
2023/06/04 00:06:36;;;;;;;2.28;1.45;;;;;;;11.80;70.18;102076.63;1043934;28;20327;-46
2023/06/04 00:07:07;;;;;;;3.42;1.67;;;;;;;11.74;70.82;102083.50;1044163;28;20307;-44
2023/06/04 00:07:39;;;;;;;2.30;1.60;;;;;;;11.73;70.86;102077.34;1043999;28;20350;-44
2023/06/04 00:08:11;;;;;;;1.00;0.90;;;;;;;11.76;70.60;102076.94;1044307;28;20313;-44
2023/06/04 00:08:42;;;;;;;2.22;2.03;;;;;;;11.73;70.74;102076.50;1044123;28;20307;-48
2023/06/04 00:09:14;;;;;;;2.83;1.30;;;;;;;11.73;71.03;102076.50;1044409;28;20651;-49
2023/06/04 00:09:46;;;;;;;5.15;1.52;;;;;;;11.72;70.47;102080.19;1044143;28;20303;-49
2023/06/04 00:10:18;;;;;;;2.15;1.45;;;;;;;11.74;70.49;102087.00;1045347;28;20313;-55
2023/06/04 00:10:50;;;;;;;1.42;1.33;;;;;;;11.71;70.55;102075.88;1047497;28;20362;-50
2023/06/04 00:11:22;;;;;;;3.50;1.45;;;;;;;11.74;70.38;102079.00;1048863;28;20290;-51
2023/06/04 00:11:56;;;;;;;3.58;1.27;;;;;;;11.73;70.57;102072.00;1048975;28;20322;-46
2023/06/04 00:12:28;;;;;;;1.13;0.90;;;;;;;11.75;70.00;102074.47;1048747;28;20367;-46
2023/06/04 00:13:00;;;;;;;3.67;1.83;;;;;;;11.78;70.02;102076.81;1048312;28;20764;-46
2023/06/04 00:13:32;;;;;;;2.03;1.17;;;;;;;11.71;70.18;102073.22;1049687;28;20047;-48
2023/06/04 00:14:03;;;;;;;1.63;1.38;;;;;;;11.69;70.37;102080.59;1049198;28;20306;-56
2023/06/04 00:14:35;;;;;;;4.07;1.20;;;;;;;11.71;70.55;102078.56;1048877;28;20036;-55
2023/06/04 00:15:07;;;;;;;1.58;1.42;;;;;;;11.71;70.09;102076.72;1048837;28;20655;-55
2023/06/04 00:15:39;;;;;;;2.42;1.33;;;;;;;11.72;70.19;102080.19;1048747;28;20861;-56
2023/06/04 00:16:11;;;;;;;1.42;1.15;;;;;;;11.70;70.09;102076.91;1048432;28;20747;-56
2023/06/04 00:16:42;;;;;;;3.53;1.17;;;;;;;11.70;69.97;102069.72;1048502;28;20326;-55
2023/06/04 00:17:14;;;;;;;4.10;1.23;;;;;;;11.66;70.37;102075.66;1048550;28;20369;-55
2023/06/04 00:17:46;;;;;;;5.80;1.40;;;;;;;11.65;70.49;102074.00;1048185;28;20326;-56
2023/06/04 00:18:17;;;;;;;3.13;1.58;;;;;;;11.64;70.36;102067.84;1047931;28;20302;-56
2023/06/04 00:18:49;;;;;;;3.47;1.80;;;;;;;11.63;70.59;102076.84;1045279;28;20303;-44
2023/06/04 00:19:21;;;;;;;1.88;1.10;;;;;;;11.62;70.86;102080.53;1044640;28;20630;-44
2023/06/04 00:19:52;;;;;;;4.13;1.80;;;;;;;11.63;70.98;102073.38;1044116;28;20357;-46
2023/06/04 00:20:24;;;;;;;4.20;1.40;;;;;;;11.62;70.94;102074.38;1043860;28;20307;-45
2023/06/04 00:20:56;;;;;;;1.10;1.02;;;;;;;11.66;70.32;102071.13;1043863;28;20293;-48
2023/06/04 00:21:28;;;;;;;3.90;1.90;;;;;;;11.63;70.27;102066.19;1043855;28;20310;-49
2023/06/04 00:22:00;;;;;;;4.20;1.27;;;;;;;11.68;70.35;102073.59;1043741;28;20295;-44
2023/06/04 00:22:31;;;;;;;2.55;1.55;;;;;;;11.62;70.46;102071.72;1044234;28;20299;-45
2023/06/04 00:23:03;;;;;;;2.95;1.45;;;;;;;11.61;70.21;102067.41;1044174;28;20307;-44
2023/06/04 00:23:35;;;;;;;1.88;1.55;;;;;;;11.55;70.79;102069.00;1044327;28;20377;-46
2023/06/04 00:24:12;;;;;;;2.05;1.48;;;;;;;11.53;70.82;102065.69;1044459;28;20291;-47
2023/06/04 00:24:44;;;;;;;2.25;1.40;;;;;;;11.57;70.67;102071.47;1044671;28;20318;-55
2023/06/04 00:25:16;;;;;;;1.50;1.17;;;;;;;11.57;70.47;102074.97;1045283;28;20486;-55
2023/06/04 00:25:47;;;;;;;2.50;1.33;;;;;;;11.61;70.47;102072.72;1040173;28;20395;-55
2023/06/04 00:26:20;;;;;;;2.17;1.20;;;;;;;11.55;70.32;102073.50;1043164;28;20041;-56
2023/06/04 00:26:52;;;;;;;3.78;1.52;;;;;;;11.55;70.41;102069.00;1043799;28;20891;-54
2023/06/04 00:27:24;;;;;;;3.25;1.23;;;;;;;11.52;70.73;102077.38;1044226;28;20302;-55
2023/06/04 00:27:55;;;;;;;3.85;1.80;;;;;;;11.49;70.78;102072.41;1043586;28;20740;-55
2023/06/04 00:28:27;;;;;;;1.52;1.10;;;;;;;11.50;71.05;102075.91;1043956;28;20389;-55
2023/06/04 00:28:58;;;;;;;1.95;1.40;;;;;;;11.44;71.19;102072.16;1044206;28;20299;-55
2023/06/04 00:29:30;;;;;;;7.13;1.50;;;;;;;11.50;70.36;102070.56;1044310;28;20448;-53
2023/06/04 00:30:03;;;;;;;3.05;1.77;;;;;;;11.48;70.46;102069.94;1044107;28;20303;-55
2023/06/04 00:30:35;;;;;;;1.90;1.23;;;;;;;11.46;70.38;102070.94;1043919;28;20303;-55
2023/06/04 00:31:06;;;;;;;1.90;1.60;;;;;;;11.42;70.70;102075.03;1043855;28;20295;-56
2023/06/04 00:31:39;;;;;;;2.22;1.67;;;;;;;11.36;70.67;102061.63;1043735;28;20374;-56
2023/06/04 00:32:10;;;;;;;0.90;0.90;;;;;;;11.44;70.69;102070.31;1044227;28;20283;-55
2023/06/04 00:32:43;;;;;;;3.78;1.27;;;;;;;11.41;70.86;102068.03;1044456;28;20306;-55
2023/06/04 00:33:14;;;;;;;2.70;1.52;;;;;;;11.45;70.96;102068.47;1044467;28;20303;-56
2023/06/04 00:33:47;;;;;;;1.75;0.93;;;;;;;11.43;70.40;102073.19;1044356;28;20449;-55
2023/06/04 00:34:18;;;;;;;3.17;1.27;;;;;;;11.40;70.67;102069.06;1044646;28;20291;-56
2023/06/04 00:34:51;;;;;;;6.07;1.52;;;;;;;11.34;71.05;102067.16;1045082;28;20296;-55
2023/06/04 00:35:23;;;;;;;1.48;1.30;;;;;;;11.38;70.57;102068.44;1044556;28;20808;-46
2023/06/04 00:35:55;;;;;;;3.17;2.42;;;;;;;11.35;70.65;102068.81;1044655;28;20778;-46
2023/06/04 00:36:26;;;;;;;6.30;1.50;;;;;;;11.33;70.75;102078.84;1044395;28;20800;-45
2023/06/04 00:36:58;;;;;;;2.67;1.10;;;;;;;11.34;71.08;102069.84;1044484;28;20380;-44
2023/06/04 00:37:30;;;;;;;1.15;0.88;;;;;;;11.34;70.84;102072.50;1045174;28;20634;-55
2023/06/04 00:38:02;;;;;;;3.28;1.33;;;;;;;11.31;70.82;102078.22;1044558;28;20370;-56
2023/06/04 00:38:33;;;;;;;3.60;1.10;;;;;;;11.32;70.77;102068.38;1044113;28;20331;-55
2023/06/04 00:39:05;;;;;;;2.38;1.50;;;;;;;11.31;70.75;102080.88;1044137;28;20309;-55
2023/06/04 00:39:36;;;;;;;2.05;1.15;;;;;;;11.26;71.22;102069.97;1043732;28;20291;-56
2023/06/04 00:40:08;;;;;;;1.40;1.27;;;;;;;11.24;71.16;102077.34;1039824;28;20295;-56
2023/06/04 00:40:40;;;;;;;3.35;1.48;;;;;;;11.27;70.98;102074.28;1037578;28;20311;-55
2023/06/04 00:41:12;;;;;;;1.73;1.35;;;;;;;11.28;70.98;102077.78;1040002;28;20300;-55
2023/06/04 00:41:43;;;;;;;2.00;1.10;;;;;;;11.25;71.37;102081.66;1043935;28;20378;-56
2023/06/04 00:42:15;;;;;;;4.10;1.40;;;;;;;11.15;71.41;102071.28;1044490;28;20302;-55
2023/06/04 00:42:49;;;;;;;6.30;1.10;;;;;;;11.16;71.60;102080.09;1043873;28;20398;-53
2023/06/04 00:43:21;;;;;;;2.10;1.27;;;;;;;11.19;71.78;102084.22;1039648;28;20339;-55
2023/06/04 00:44:01;;;;;;;5.35;1.25;;;;;;;11.16;71.67;102074.78;1031639;28;20352;-55
2023/06/04 00:44:33;;;;;;;3.83;1.10;;;;;;;11.11;71.47;102082.50;1031502;28;20412;-55
2023/06/04 00:45:09;;;;;;;2.30;1.10;;;;;;;11.13;71.80;102075.97;1033343;28;20513;-55
2023/06/04 00:45:41;;;;;;;2.72;1.50;;;;;;;11.11;71.71;102077.19;1033558;28;20417;-55
2023/06/04 00:46:18;;;;;;;2.92;1.30;;;;;;;11.12;71.88;102078.84;1039731;28;20303;-56
2023/06/04 00:46:50;;;;;;;3.67;1.60;;;;;;;11.12;71.75;102076.16;1041184;28;20292;-56
2023/06/04 00:47:21;;;;;;;2.38;1.30;;;;;;;11.11;72.08;102077.19;1046519;28;20311;-56
2023/06/04 00:47:53;;;;;;;1.30;1.20;;;;;;;11.12;71.85;102078.84;1048277;28;20373;-55
2023/06/04 00:48:27;;;;;;;2.70;1.25;;;;;;;11.09;71.95;102080.03;1043406;28;20433;-55
2023/06/04 00:48:59;;;;;;;1.40;1.30;;;;;;;11.10;71.98;102076.34;1035910;28;20315;-55
2023/06/04 00:49:31;;;;;;;3.00;1.30;;;;;;;11.05;72.34;102075.28;1036030;28;20303;-56
2023/06/04 00:50:03;;;;;;;3.42;1.58;;;;;;;11.01;72.56;102071.34;1032164;28;20285;-55
2023/06/04 00:50:35;;;;;;;1.15;1.05;;;;;;;11.01;72.55;102080.16;1040213;28;20292;-56
2023/06/04 00:51:07;;;;;;;1.25;0.80;;;;;;;10.98;72.83;102069.88;1039944;28;20300;-56
2023/06/04 00:51:39;;;;;;;3.15;1.45;;;;;;;10.99;72.90;102078.72;1036040;28;20399;-56
2023/06/04 00:52:13;;;;;;;3.38;1.77;;;;;;;10.95;72.51;102075.56;1034858;28;20794;-55
2023/06/04 00:52:44;;;;;;;2.13;0.93;;;;;;;10.98;72.69;102082.38;1035843;28;20305;-55
2023/06/04 00:53:16;;;;;;;1.92;1.10;;;;;;;10.99;72.99;102078.72;1034726;28;20308;-56
2023/06/04 00:53:54;;;;;;;2.70;1.88;;;;;;;10.97;73.11;102078.06;1044467;28;20885;-54
2023/06/04 00:54:26;;;;;;;7.07;1.50;;;;;;;10.94;72.97;102078.41;1046382;28;20772;-55
2023/06/04 00:54:58;;;;;;;2.30;1.40;;;;;;;10.95;73.16;102082.72;1044091;28;20310;-55
2023/06/04 00:55:29;;;;;;;4.40;1.25;;;;;;;10.92;73.25;102077.78;1043947;28;20473;-54
2023/06/04 00:56:01;;;;;;;1.35;1.25;;;;;;;10.91;73.35;102081.47;1043557;28;20420;-55
2023/06/04 00:56:34;;;;;;;7.32;1.55;;;;;;;10.90;73.27;102083.31;1043624;28;20303;-54
2023/06/04 00:57:06;;;;;;;1.60;1.33;;;;;;;10.87;73.52;102075.69;1041938;28;20805;-55
2023/06/04 00:57:38;;;;;;;3.45;1.52;;;;;;;10.84;73.66;102074.22;1043854;28;20307;-55
2023/06/04 00:58:10;;;;;;;8.00;2.17;;;;;;;10.84;73.83;102082.22;1044124;28;20299;-55
2023/06/04 00:58:43;;;;;;;3.25;1.40;;;;;;;10.79;74.17;102079.28;1044212;28;20302;-56
2023/06/04 00:59:14;;;;;;;2.90;1.52;;;;;;;10.82;74.11;102084.25;1043902;28;20384;-55
2023/06/04 00:59:46;;;;;;;3.00;1.83;;;;;;;10.81;73.67;102081.78;1043752;28;20309;-56
2023/06/04 01:00:18;;;;;;;2.75;1.30;;;;;;;10.81;73.97;102082.59;1040856;28;20292;-55
2023/06/04 01:00:52;;;;;;;2.95;1.30;;;;;;;10.71;74.68;102082.06;1037737;28;20289;-47
2023/06/04 01:02:14;;;;;;;3.70;1.75;;;;;;;10.76;74.32;102085.00;1047376;28;20303;-46
2023/06/04 01:02:50;;;;;;;3.80;2.22;;;;;;;10.78;74.22;102087.47;1043517;28;20320;-45
2023/06/04 01:03:25;;;;;;;1.17;1.08;;;;;;;10.74;74.59;102088.88;1035739;28;20050;-47
2023/06/04 01:04:00;;;;;;;5.43;1.30;;;;;;;10.74;74.64;102092.38;1038835;28;20820;-46
2023/06/04 01:05:04;;;;;;;2.30;1.35;;;;;;;10.76;74.50;102085.00;1027593;28;20339;-45
2023/06/04 01:05:42;;;;;;;2.25;2.05;;;;;;;10.75;74.41;102088.69;1028408;28;20321;-54
2023/06/04 01:06:52;;;;;;;1.77;1.58;;;;;;;10.76;74.09;102090.34;1039364;28;20298;-55
2023/06/04 01:07:27;;;;;;;2.13;1.10;;;;;;;10.72;74.51;102089.06;1040608;28;20299;-55
2023/06/04 01:07:59;;;;;;;1.83;1.40;;;;;;;10.70;74.76;102085.75;1039322;28;20296;-52
2023/06/04 01:08:30;;;;;;;4.63;1.67;;;;;;;10.67;74.41;102090.59;1041965;28;20401;-55
2023/06/04 01:09:02;;;;;;;5.85;2.13;;;;;;;10.65;74.28;102088.13;1043783;28;20287;-56
2023/06/04 01:09:36;;;;;;;3.45;1.38;;;;;;;10.64;74.50;102081.16;1040041;28;20408;-55
2023/06/04 01:10:07;;;;;;;4.30;1.50;;;;;;;10.62;74.70;102083.19;1039866;28;20300;-55
2023/06/04 01:10:53;;;;;;;5.30;1.40;;;;;;;10.55;75.48;102092.94;1039804;28;20303;-55
2023/06/04 01:11:35;;;;;;;1.35;1.30;;;;;;;10.36;77.00;102090.81;1042584;28;20292;-56
2023/06/04 01:12:07;;;;;;;3.08;1.33;;;;;;;10.42;76.46;102095.44;1044084;28;20300;-55
2023/06/04 01:12:41;;;;;;;1.42;1.08;;;;;;;10.44;76.37;102090.75;1044874;28;20287;-51
2023/06/04 01:13:14;;;;;;;2.60;1.92;;;;;;;10.41;76.47;102091.13;1043791;28;20329;-46
2023/06/04 01:13:46;;;;;;;1.50;1.40;;;;;;;10.44;76.39;102093.41;1043822;28;20310;-45
2023/06/04 01:14:18;;;;;;;4.45;1.35;;;;;;;10.40;76.70;102089.44;1043658;28;20610;-46
2023/06/04 01:14:50;;;;;;;1.40;1.30;;;;;;;10.38;77.07;102091.47;1040005;28;20307;-46
2023/06/04 01:15:22;;;;;;;2.72;1.35;;;;;;;10.44;76.35;102098.72;1043924;28;20302;-46
2023/06/04 01:15:54;;;;;;;2.20;1.63;;;;;;;10.45;76.12;102087.06;1039397;28;20304;-45
2023/06/04 01:16:28;;;;;;;4.60;1.50;;;;;;;10.50;75.95;102095.31;1039744;28;20378;-48
2023/06/04 01:17:28;;;;;;;3.95;1.30;;;;;;;10.46;75.97;102088.72;1035593;28;20300;-47
2023/06/04 01:18:03;;;;;;;2.13;1.48;;;;;;;10.39;75.85;102088.59;1035425;28;20300;-46
2023/06/04 01:18:36;;;;;;;2.38;1.38;;;;;;;10.48;76.40;102092.03;1037847;28;20292;-54
2023/06/04 01:19:20;;;;;;;1.52;1.30;;;;;;;10.45;75.80;102092.41;1040436;28;20292;-55
2023/06/04 01:20:13;;;;;;;2.15;1.40;;;;;;;10.48;75.57;102086.69;1036548;28;20304;-49
2023/06/04 01:20:48;;;;;;;1.27;1.02;;;;;;;10.52;75.13;102087.97;1037226;28;20288;-51
2023/06/04 01:21:19;;;;;;;1.98;1.10;;;;;;;10.46;75.38;102094.03;1044219;28;20299;-45
2023/06/04 01:21:53;;;;;;;1.90;1.58;;;;;;;10.47;75.20;102093.03;1043393;28;20299;-53
2023/06/04 01:22:51;;;;;;;2.58;1.45;;;;;;;10.51;75.07;102087.16;1043449;28;20311;-55
2023/06/04 01:23:34;;;;;;;5.28;1.52;;;;;;;10.51;75.05;102089.81;1039589;28;20793;-54
2023/06/04 01:24:08;;;;;;;1.95;1.73;;;;;;;10.49;75.26;102088.34;1044466;28;20710;-44
2023/06/04 01:24:41;;;;;;;1.92;1.33;;;;;;;10.40;76.44;102089.44;1044626;28;20315;-55
2023/06/04 01:25:19;;;;;;;5.15;1.40;;;;;;;10.49;76.33;102094.50;1040015;28;20766;-55
2023/06/04 01:25:51;;;;;;;4.00;1.35;;;;;;;10.29;76.69;102092.56;1039904;28;20300;-55
2023/06/04 01:26:24;;;;;;;2.05;1.58;;;;;;;10.20;76.93;102095.31;1041239;28;20808;-55
2023/06/04 01:26:56;;;;;;;6.60;1.77;;;;;;;10.26;77.25;102090.28;1043292;28;20518;-55
2023/06/04 01:27:28;;;;;;;2.08;1.35;;;;;;;10.25;77.27;102091.28;1039470;28;20292;-55
2023/06/04 01:28:03;;;;;;;4.57;1.88;;;;;;;10.24;77.01;102092.28;1036036;28;20320;-55
2023/06/04 01:28:35;;;;;;;5.65;1.58;;;;;;;10.28;76.64;102098.91;1035323;28;20300;-55
2023/06/04 01:29:07;;;;;;;1.58;1.38;;;;;;;10.28;77.33;102094.41;1037301;28;20783;-54
2023/06/04 01:29:38;;;;;;;3.55;1.27;;;;;;;10.02;77.66;102094.81;1040977;28;20681;-56
2023/06/04 01:30:11;;;;;;;6.47;1.52;;;;;;;9.91;77.74;102100.59;1043120;28;20346;-50
2023/06/04 01:30:47;;;;;;;5.07;1.70;;;;;;;9.93;78.92;102093.25;1041432;28;20303;-55
2023/06/04 01:31:22;;;;;;;1.85;1.42;;;;;;;9.91;78.63;102096.09;1039977;28;20328;-48
2023/06/04 01:31:54;;;;;;;2.65;1.77;;;;;;;9.94;79.30;102096.75;1039481;28;20879;-45
2023/06/04 01:32:26;;;;;;;4.57;1.55;;;;;;;10.04;78.25;102098.13;1034197;28;20319;-44
2023/06/04 01:32:59;;;;;;;3.28;1.60;;;;;;;10.01;79.06;102090.50;1039436;28;20307;-45
2023/06/04 01:33:31;;;;;;;2.85;1.60;;;;;;;10.10;78.00;102088.56;1039936;28;20425;-45
2023/06/04 01:34:02;;;;;;;3.67;1.65;;;;;;;10.09;77.87;102087.75;1037121;28;20347;-45
2023/06/04 01:34:46;;;;;;;3.08;1.75;;;;;;;10.08;77.90;102086.09;1044318;28;20294;-44
2023/06/04 01:35:18;;;;;;;2.15;1.20;;;;;;;10.16;77.65;102078.03;1043970;28;20797;-46
2023/06/04 01:35:50;;;;;;;2.28;1.75;;;;;;;10.17;77.34;102086.84;1046418;28;20310;-45
2023/06/04 01:36:21;;;;;;;5.70;2.17;;;;;;;10.20;77.55;102084.69;1048107;28;20443;-55
2023/06/04 01:36:53;;;;;;;1.60;1.35;;;;;;;10.23;77.40;102087.97;1048157;28;20307;-46
2023/06/04 01:37:26;;;;;;;2.50;1.50;;;;;;;10.21;76.75;102081.00;1048469;28;20842;-46
2023/06/04 01:37:57;;;;;;;1.58;1.48;;;;;;;10.13;77.34;102081.03;1043341;28;20311;-45
2023/06/04 01:38:29;;;;;;;5.43;1.60;;;;;;;10.12;78.01;102082.06;1044122;28;20424;-45
2023/06/04 01:39:01;;;;;;;1.45;1.30;;;;;;;10.16;77.72;102082.53;1040539;28;20306;-48
2023/06/04 01:39:32;;;;;;;1.30;1.20;;;;;;;10.11;77.50;102080.41;1043519;28;20306;-47
2023/06/04 01:40:05;;;;;;;4.47;1.98;;;;;;;10.04;78.48;102084.81;1044086;28;20842;-47
2023/06/04 01:40:37;;;;;;;2.67;2.03;;;;;;;10.07;78.38;102086.28;1043106;28;20306;-43
2023/06/04 01:41:08;;;;;;;4.78;1.65;;;;;;;10.06;78.43;102082.78;1043593;28;20299;-46
2023/06/04 01:41:40;;;;;;;2.05;1.50;;;;;;;10.12;78.00;102081.22;1043547;28;20299;-46
2023/06/04 01:42:12;;;;;;;2.40;1.98;;;;;;;9.87;78.67;102080.66;1039833;28;20295;-45
2023/06/04 01:42:43;;;;;;;1.60;1.00;;;;;;;10.03;78.38;102088.47;1043444;28;20295;-49
2023/06/04 01:43:18;;;;;;;3.50;2.60;;;;;;;10.11;78.23;102075.06;1044823;28;20315;-51
2023/06/04 01:43:50;;;;;;;5.93;1.65;;;;;;;10.15;77.76;102081.72;1044376;28;20364;-56
2023/06/04 01:44:21;;;;;;;2.38;1.60;;;;;;;10.11;77.78;102077.72;1044627;28;20296;-46
2023/06/04 01:44:53;;;;;;;1.10;1.10;;;;;;;10.13;77.54;102077.56;1043679;28;20322;-46
2023/06/04 01:45:32;;;;;;;6.97;1.33;;;;;;;10.07;77.39;102079.13;1044895;28;20299;-55
2023/06/04 01:46:04;;;;;;;3.35;2.13;;;;;;;10.15;77.76;102079.06;1043718;28;20300;-55
2023/06/04 01:46:36;;;;;;;4.13;1.10;;;;;;;10.15;77.12;102076.38;1043699;28;20342;-56
2023/06/04 01:47:08;;;;;;;1.50;1.40;;;;;;;10.19;77.36;102077.66;1039800;28;20315;-44
2023/06/04 01:47:40;;;;;;;1.20;1.02;;;;;;;10.19;76.89;102082.16;1040891;28;20310;-56
2023/06/04 01:48:12;;;;;;;1.75;1.42;;;;;;;10.19;77.01;102077.66;1045164;28;20330;-45
2023/06/04 01:48:44;;;;;;;1.77;1.40;;;;;;;10.13;77.24;102073.06;1043892;28;20394;-45
2023/06/04 01:49:19;;;;;;;2.33;1.80;;;;;;;10.16;77.08;102072.72;1044346;28;20900;-45
2023/06/04 01:49:50;;;;;;;1.45;1.30;;;;;;;10.12;76.91;102073.25;1044613;28;20301;-44
2023/06/04 01:50:22;;;;;;;2.08;1.55;;;;;;;10.15;76.75;102080.88;1044827;28;20664;-52
2023/06/04 01:50:54;;;;;;;6.18;1.60;;;;;;;10.18;76.53;102081.34;1044432;28;20337;-55
2023/06/04 01:51:26;;;;;;;1.92;1.23;;;;;;;10.15;76.67;102078.22;1044086;28;20754;-55
2023/06/04 01:51:58;;;;;;;2.40;1.75;;;;;;;10.16;76.79;102078.03;1044240;28;20299;-55
2023/06/04 01:52:29;;;;;;;2.92;2.00;;;;;;;10.15;76.95;102076.38;1043472;28;20307;-54
2023/06/04 01:53:01;;;;;;;5.25;1.63;;;;;;;10.11;76.92;102077.72;1043596;28;20302;-55
2023/06/04 01:53:33;;;;;;;6.60;1.90;;;;;;;10.16;77.00;102079.88;1043775;28;20823;-54
2023/06/04 01:54:05;;;;;;;1.80;1.40;;;;;;;10.12;77.14;102079.38;1043407;28;20815;-56
2023/06/04 01:54:38;;;;;;;5.18;1.23;;;;;;;10.12;77.04;102076.72;1043270;28;20314;-56
2023/06/04 01:55:14;;;;;;;1.85;1.35;;;;;;;9.92;78.00;102080.94;1043871;28;20378;-55
2023/06/04 01:55:48;;;;;;;1.92;1.13;;;;;;;9.77;78.12;102074.75;1035431;28;20701;-55
2023/06/04 01:56:21;;;;;;;3.30;1.60;;;;;;;9.72;78.93;102085.13;1036147;28;20292;-46
2023/06/04 01:56:54;;;;;;;2.30;1.50;;;;;;;9.69;79.51;102080.16;1035308;28;20308;-46
2023/06/04 01:57:26;;;;;;;3.30;1.35;;;;;;;9.63;80.12;102075.56;1035067;28;20308;-46
2023/06/04 01:57:58;;;;;;;4.72;1.23;;;;;;;9.67;79.74;102076.84;1039741;28;20998;-48
2023/06/04 01:58:31;;;;;;;3.28;1.25;;;;;;;9.66;80.17;102077.88;1039752;28;20304;-46
2023/06/04 01:59:04;;;;;;;3.75;1.80;;;;;;;9.52;80.05;102074.13;1036056;28;20296;-45
2023/06/04 01:59:39;;;;;;;5.50;1.70;;;;;;;9.46;80.43;102078.34;1039629;28;20827;-47
2023/06/04 02:00:11;;;;;;;2.65;1.75;;;;;;;9.41;80.93;102086.03;1036644;28;20406;-45
2023/06/04 02:00:44;;;;;;;1.70;1.35;;;;;;;9.52;81.47;102080.28;1040317;28;20418;-46
2023/06/04 02:01:19;;;;;;;7.20;2.00;;;;;;;9.53;81.25;102084.59;1043541;28;20886;-46
2023/06/04 02:01:51;;;;;;;2.35;1.73;;;;;;;9.58;80.79;102084.88;1043680;28;20327;-45
2023/06/04 02:02:23;;;;;;;2.08;1.73;;;;;;;9.64;80.87;102071.91;1041426;28;20307;-45
2023/06/04 02:02:55;;;;;;;2.58;1.75;;;;;;;9.76;79.83;102081.09;1043700;28;20303;-47
2023/06/04 02:03:27;;;;;;;2.42;1.63;;;;;;;9.74;79.93;102080.44;1042937;28;21640;-46
2023/06/04 02:03:59;;;;;;;2.20;2.00;;;;;;;9.83;79.35;102072.19;1043707;28;20287;-46
2023/06/04 02:04:31;;;;;;;3.78;1.85;;;;;;;9.83;79.57;102082.84;1039410;28;20306;-46
2023/06/04 02:05:07;;;;;;;2.35;1.48;;;;;;;9.80;79.44;102079.72;1037223;28;20293;-51
2023/06/04 02:05:39;;;;;;;2.33;1.40;;;;;;;9.81;78.70;102076.03;1040187;28;20808;-45
2023/06/04 02:06:12;;;;;;;2.00;1.35;;;;;;;9.81;79.24;102078.72;1040571;28;20437;-55
2023/06/04 02:06:44;;;;;;;2.47;1.55;;;;;;;9.81;79.60;102073.38;1044493;28;20308;-54
2023/06/04 02:07:21;;;;;;;2.83;1.30;;;;;;;9.68;79.76;102078.50;1036645;28;20670;-55
2023/06/04 02:07:52;;;;;;;2.00;1.80;;;;;;;9.66;79.36;102072.53;1036214;28;20300;-55
2023/06/04 02:08:27;;;;;;;3.67;1.67;;;;;;;9.69;80.33;102070.34;1036196;28;20300;-50
2023/06/04 02:09:00;;;;;;;2.72;1.25;;;;;;;9.68;80.46;102078.50;1038734;28;20312;-55
2023/06/04 02:09:32;;;;;;;1.73;1.55;;;;;;;9.57;80.28;102077.91;1043697;28;20291;-55
2023/06/04 02:10:06;;;;;;;4.50;1.70;;;;;;;9.55;80.49;102074.59;1043970;28;20327;-55
2023/06/04 02:10:37;;;;;;;2.75;1.75;;;;;;;9.62;80.26;102077.41;1043658;28;20309;-56
2023/06/04 02:11:27;;;;;;;2.67;1.60;;;;;;;9.64;80.31;102077.22;1043007;28;20053;-46
2023/06/04 02:11:59;;;;;;;3.78;1.85;;;;;;;9.65;80.13;102084.19;1044537;28;20310;-56
2023/06/04 02:12:31;;;;;;;4.50;1.70;;;;;;;9.70;80.05;102076.50;1043894;28;20299;-55
2023/06/04 02:13:03;;;;;;;3.90;2.08;;;;;;;9.64;79.72;102083.38;1043600;28;20303;-55
2023/06/04 02:13:35;;;;;;;4.32;1.60;;;;;;;9.67;79.82;102079.53;1043967;28;20306;-56
2023/06/04 02:14:07;;;;;;;3.95;1.40;;;;;;;9.64;80.25;102082.53;1041537;28;20298;-55
2023/06/04 02:14:39;;;;;;;3.45;1.58;;;;;;;9.57;80.61;102088.56;1043317;28;20299;-55
2023/06/04 02:15:11;;;;;;;1.60;1.50;;;;;;;9.53;80.46;102081.13;1043221;28;20310;-55
2023/06/04 02:15:42;;;;;;;7.72;1.92;;;;;;;9.52;80.94;102082.13;1043702;28;20326;-55
2023/06/04 02:16:14;;;;;;;2.72;1.70;;;;;;;9.54;81.11;102083.59;1042709;28;20291;-54
2023/06/04 02:16:49;;;;;;;2.55;1.70;;;;;;;9.51;80.93;102083.94;1043577;28;20453;-55
2023/06/04 02:17:21;;;;;;;2.53;1.48;;;;;;;9.37;80.96;102086.56;1043828;28;20330;-55
2023/06/04 02:17:58;;;;;;;5.05;1.88;;;;;;;9.41;81.16;102083.38;1039358;28;20396;-55
2023/06/04 02:18:30;;;;;;;5.38;2.28;;;;;;;9.51;80.92;102083.94;1039663;28;20299;-55
2023/06/04 02:19:03;;;;;;;2.45;1.63;;;;;;;9.47;80.67;102082.66;1040553;28;20293;-53
2023/06/04 02:19:36;;;;;;;4.63;1.63;;;;;;;9.44;81.44;102083.03;1043524;28;20303;-54
2023/06/04 02:20:09;;;;;;;1.50;1.40;;;;;;;9.28;81.32;102091.09;1039481;28;20311;-55
2023/06/04 02:20:42;;;;;;;3.17;1.88;;;;;;;9.14;82.38;102086.56;1039053;28;20303;-55
2023/06/04 02:21:14;;;;;;;3.92;1.60;;;;;;;9.10;82.56;102085.25;1040530;28;20311;-55
2023/06/04 02:21:46;;;;;;;4.40;1.52;;;;;;;9.16;82.70;102087.22;1044029;28;20828;-55
2023/06/04 02:22:18;;;;;;;2.10;1.55;;;;;;;9.12;82.67;102088.56;1043630;28;20307;-54
2023/06/04 02:22:50;;;;;;;3.47;1.60;;;;;;;9.17;83.50;102083.56;1044147;28;20660;-55
2023/06/04 02:23:22;;;;;;;2.83;2.45;;;;;;;9.14;83.23;102086.56;1043758;28;20295;-55
2023/06/04 02:23:54;;;;;;;3.38;1.63;;;;;;;9.08;83.71;102088.09;1044215;28;20320;-45
2023/06/04 02:24:28;;;;;;;4.55;2.00;;;;;;;9.14;83.23;102087.38;1043680;28;20369;-48
2023/06/04 02:25:00;;;;;;;1.63;1.52;;;;;;;9.04;83.53;102088.59;1043911;28;20302;-46
2023/06/04 02:25:32;;;;;;;6.03;1.90;;;;;;;9.07;84.07;102090.94;1043194;28;20295;-46
2023/06/04 02:26:05;;;;;;;4.53;2.00;;;;;;;9.14;83.96;102086.56;1043701;28;20303;-45
2023/06/04 02:26:36;;;;;;;2.40;2.03;;;;;;;9.15;83.47;102099.69;1043893;28;20296;-46
2023/06/04 02:27:10;;;;;;;2.25;1.67;;;;;;;9.19;83.79;102086.84;1043270;28;20303;-47
2023/06/04 02:27:42;;;;;;;2.58;1.77;;;;;;;9.21;83.19;102092.81;1043462;28;20299;-48
2023/06/04 02:28:13;;;;;;;2.70;2.08;;;;;;;9.19;83.17;102092.16;1043547;28;20310;-44
2023/06/04 02:28:45;;;;;;;2.10;1.90;;;;;;;9.15;83.78;102085.56;1043663;28;20755;-45
2023/06/04 02:29:17;;;;;;;2.47;1.60;;;;;;;9.17;83.57;102086.22;1044113;28;20354;-45
2023/06/04 02:29:48;;;;;;;3.17;2.55;;;;;;;9.21;83.15;102090.16;1043071;28;20299;-44
2023/06/04 02:30:20;;;;;;;4.00;1.75;;;;;;;9.18;83.33;102087.88;1043597;28;20296;-46
2023/06/04 02:30:52;;;;;;;3.90;2.10;;;;;;;9.19;83.52;102087.69;1043647;28;20318;-45
2023/06/04 02:31:23;;;;;;;2.55;2.08;;;;;;;9.23;83.60;102096.13;1047580;28;20318;-45
2023/06/04 02:31:55;;;;;;;2.40;1.88;;;;;;;9.21;83.46;102087.50;1048104;28;20308;-48
2023/06/04 02:32:28;;;;;;;3.85;1.70;;;;;;;9.21;83.96;102087.50;1047420;28;20313;-45
2023/06/04 02:33:00;;;;;;;4.18;1.90;;;;;;;9.19;83.75;102085.03;1043624;28;20299;-46
2023/06/04 02:33:32;;;;;;;5.32;2.00;;;;;;;9.22;83.62;102084.66;1043662;28;20306;-47
2023/06/04 02:34:04;;;;;;;4.13;1.95;;;;;;;9.24;83.99;102087.16;1045053;28;20302;-45
2023/06/04 02:34:36;;;;;;;3.08;2.17;;;;;;;9.24;83.50;102081.84;1044608;28;20307;-49
2023/06/04 02:35:08;;;;;;;3.58;2.42;;;;;;;9.19;83.63;102084.19;1047707;28;20711;-46
2023/06/04 02:35:40;;;;;;;4.07;1.85;;;;;;;9.23;84.00;102091.63;1047447;28;20302;-47